sensor_id;sensor_type;location;lat;lon;timestamp;pressure;altitude;pressure_sealevel;temperature;humidity
27958;BME280;15295;42.658;23.374;2023-02-26T00:01:43;93411.72;;;19.21;30.33
27958;BME280;15295;42.658;23.374;2023-02-26T00:04:31;93473.31;;;19.45;30.34
27958;BME280;15295;42.658;23.374;2023-02-26T00:07:15;93395.34;;;19.03;30.22
27958;BME280;15295;42.658;23.374;2023-02-26T00:10:16;93393.25;;;18.98;30.21
27958;BME280;15295;42.658;23.374;2023-02-26T00:13:08;93398.28;;;18.99;30.10
27958;BME280;15295;42.658;23.374;2023-02-26T00:15:41;93401.06;;;18.99;30.04
27958;BME280;15295;42.658;23.374;2023-02-26T00:18:14;93451.84;;;19.40;30.22
27958;BME280;15295;42.658;23.374;2023-02-26T00:20:43;93384.84;;;18.92;30.40
27958;BME280;15295;42.658;23.374;2023-02-26T00:23:24;93382.00;;;18.72;30.29
27958;BME280;15295;42.658;23.374;2023-02-26T00:25:53;93373.41;;;18.85;30.19
27958;BME280;15295;42.658;23.374;2023-02-26T00:28:20;93447.53;;;19.10;30.88
27958;BME280;15295;42.658;23.374;2023-02-26T00:30:48;93385.81;;;18.75;30.48
27958;BME280;15295;42.658;23.374;2023-02-26T00:33:44;93380.66;;;18.82;30.53
27958;BME280;15295;42.658;23.374;2023-02-26T00:37:04;93416.91;;;19.13;30.60
27958;BME280;15295;42.658;23.374;2023-02-26T00:42:28;93432.72;;;19.27;30.33
27958;BME280;15295;42.658;23.374;2023-02-26T00:44:57;93419.97;;;19.15;30.19
27958;BME280;15295;42.658;23.374;2023-02-26T00:47:51;93372.16;;;18.86;30.46
27958;BME280;15295;42.658;23.374;2023-02-26T00:50:32;93397.81;;;19.15;30.36
27958;BME280;15295;42.658;23.374;2023-02-26T00:53:21;93366.91;;;18.88;30.47
27958;BME280;15295;42.658;23.374;2023-02-26T00:56:15;93407.59;;;19.31;30.51
27958;BME280;15295;42.658;23.374;2023-02-26T00:58:45;93381.00;;;19.04;30.44
27958;BME280;15295;42.658;23.374;2023-02-26T01:01:18;93381.41;;;18.83;30.26
27958;BME280;15295;42.658;23.374;2023-02-26T01:04:23;93343.63;;;18.65;30.35
27958;BME280;15295;42.658;23.374;2023-02-26T01:07:04;93400.75;;;19.12;30.15
27958;BME280;15295;42.658;23.374;2023-02-26T01:09:37;93390.19;;;18.96;30.07
27958;BME280;15295;42.658;23.374;2023-02-26T01:12:08;93315.69;;;18.48;29.72
27958;BME280;15295;42.658;23.374;2023-02-26T01:14:38;93333.22;;;18.16;30.13
27958;BME280;15295;42.658;23.374;2023-02-26T01:19:51;93401.75;;;18.94;29.74
27958;BME280;15295;42.658;23.374;2023-02-26T01:22:56;93340.88;;;18.65;29.89
27958;BME280;15295;42.658;23.374;2023-02-26T01:25:46;93317.31;;;18.55;29.68
27958;BME280;15295;42.658;23.374;2023-02-26T01:28:38;93356.25;;;18.66;29.54
27958;BME280;15295;42.658;23.374;2023-02-26T01:31:06;93383.72;;;18.99;29.44
27958;BME280;15295;42.658;23.374;2023-02-26T01:33:49;93345.34;;;18.92;29.42
27958;BME280;15295;42.658;23.374;2023-02-26T01:36:24;93300.13;;;18.66;29.07
27958;BME280;15295;42.658;23.374;2023-02-26T01:44:04;93342.25;;;19.04;29.23
27958;BME280;15295;42.658;23.374;2023-02-26T01:49:48;93304.94;;;19.00;28.78
27958;BME280;15295;42.658;23.374;2023-02-26T01:55:04;93263.69;;;18.53;28.55
27958;BME280;15295;42.658;23.374;2023-02-26T01:57:47;93315.72;;;18.98;28.57
27958;BME280;15295;42.658;23.374;2023-02-26T02:00:22;93340.88;;;19.14;28.39
27958;BME280;15295;42.658;23.374;2023-02-26T02:03:03;93312.63;;;19.10;28.26
27958;BME280;15295;42.658;23.374;2023-02-26T02:05:46;93261.59;;;18.62;28.38
27958;BME280;15295;42.658;23.374;2023-02-26T02:08:21;93269.97;;;18.68;28.69
27958;BME280;15295;42.658;23.374;2023-02-26T02:11:10;93295.56;;;18.97;28.25
27958;BME280;15295;42.658;23.374;2023-02-26T02:14:11;93322.34;;;19.20;28.31
27958;BME280;15295;42.658;23.374;2023-02-26T02:20:26;93336.31;;;19.11;28.01
27958;BME280;15295;42.658;23.374;2023-02-26T02:29:53;93252.81;;;18.64;27.86
27958;BME280;15295;42.658;23.374;2023-02-26T02:35:21;93302.41;;;18.67;28.28
27958;BME280;15295;42.658;23.374;2023-02-26T02:40:47;93264.47;;;18.38;28.37
27958;BME280;15295;42.658;23.374;2023-02-26T02:43:32;93261.44;;;18.51;28.05
27958;BME280;15295;42.658;23.374;2023-02-26T02:46:23;93278.97;;;18.48;27.77
27958;BME280;15295;42.658;23.374;2023-02-26T02:49:20;93272.22;;;18.49;27.37
27958;BME280;15295;42.658;23.374;2023-02-26T02:52:18;93278.09;;;18.57;27.32
27958;BME280;15295;42.658;23.374;2023-02-26T02:55:04;93323.75;;;18.96;27.31
27958;BME280;15295;42.658;23.374;2023-02-26T02:57:37;93314.03;;;18.86;26.85
27958;BME280;15295;42.658;23.374;2023-02-26T03:00:11;93288.47;;;18.76;27.05
27958;BME280;15295;42.658;23.374;2023-02-26T03:05:59;93308.66;;;18.97;27.21
27958;BME280;15295;42.658;23.374;2023-02-26T03:08:47;93326.50;;;18.96;27.08
27958;BME280;15295;42.658;23.374;2023-02-26T03:11:35;93328.22;;;18.93;27.02
27958;BME280;15295;42.658;23.374;2023-02-26T03:14:10;93288.00;;;18.63;26.87
27958;BME280;15295;42.658;23.374;2023-02-26T03:25:50;93345.47;;;19.17;26.38
27958;BME280;15295;42.658;23.374;2023-02-26T03:28:33;93285.69;;;18.76;26.22
27958;BME280;15295;42.658;23.374;2023-02-26T03:31:19;93287.66;;;19.05;25.96
27958;BME280;15295;42.658;23.374;2023-02-26T03:34:00;93289.19;;;18.91;26.44
27958;BME280;15295;42.658;23.374;2023-02-26T03:36:39;93317.16;;;19.28;26.10
27958;BME280;15295;42.658;23.374;2023-02-26T03:39:41;93319.66;;;19.26;26.21
27958;BME280;15295;42.658;23.374;2023-02-26T03:45:39;93283.50;;;19.15;25.75
27958;BME280;15295;42.658;23.374;2023-02-26T03:48:29;93300.00;;;19.24;26.12
27958;BME280;15295;42.658;23.374;2023-02-26T03:51:02;93315.91;;;19.44;25.96
27958;BME280;15295;42.658;23.374;2023-02-26T03:53:46;93280.78;;;19.20;26.11
27958;BME280;15295;42.658;23.374;2023-02-26T03:56:36;93297.50;;;19.26;25.91
27958;BME280;15295;42.658;23.374;2023-02-26T03:59:30;93303.84;;;19.47;25.94
27958;BME280;15295;42.658;23.374;2023-02-26T04:02:26;93238.44;;;18.94;26.12
27958;BME280;15295;42.658;23.374;2023-02-26T04:05:15;93271.59;;;19.09;26.31
27958;BME280;15295;42.658;23.374;2023-02-26T04:07:46;93309.75;;;19.19;25.85
27958;BME280;15295;42.658;23.374;2023-02-26T04:10:21;93239.16;;;18.95;26.23
27958;BME280;15295;42.658;23.374;2023-02-26T04:12:52;93221.00;;;18.74;26.04
27958;BME280;15295;42.658;23.374;2023-02-26T04:15:40;93264.69;;;18.84;26.45
27958;BME280;15295;42.658;23.374;2023-02-26T04:18:06;93263.00;;;18.72;26.13
27958;BME280;15295;42.658;23.374;2023-02-26T04:20:34;93221.28;;;18.76;26.07
27958;BME280;15295;42.658;23.374;2023-02-26T04:23:02;93254.06;;;18.97;26.08
27958;BME280;15295;42.658;23.374;2023-02-26T04:25:47;93234.72;;;18.83;26.06
27958;BME280;15295;42.658;23.374;2023-02-26T04:28:19;93242.25;;;18.82;26.19
27958;BME280;15295;42.658;23.374;2023-02-26T04:31:05;93289.69;;;19.24;26.37
27958;BME280;15295;42.658;23.374;2023-02-26T04:33:54;93222.16;;;18.82;26.17
27958;BME280;15295;42.658;23.374;2023-02-26T04:36:23;93205.38;;;18.71;26.30
27958;BME280;15295;42.658;23.374;2023-02-26T04:38:51;93236.88;;;18.93;26.45
27958;BME280;15295;42.658;23.374;2023-02-26T04:41:18;93228.31;;;18.91;26.29
27958;BME280;15295;42.658;23.374;2023-02-26T04:43:47;93260.50;;;19.09;26.61
27958;BME280;15295;42.658;23.374;2023-02-26T04:46:14;93212.59;;;18.83;26.39
27958;BME280;15295;42.658;23.374;2023-02-26T04:48:44;93257.88;;;19.00;26.24
27958;BME280;15295;42.658;23.374;2023-02-26T04:51:10;93220.00;;;18.57;26.44
27958;BME280;15295;42.658;23.374;2023-02-26T04:53:36;93211.31;;;18.64;26.35
27958;BME280;15295;42.658;23.374;2023-02-26T04:56:02;93222.44;;;18.84;26.52
27958;BME280;15295;42.658;23.374;2023-02-26T04:58:28;93227.19;;;18.83;26.72
27958;BME280;15295;42.658;23.374;2023-02-26T05:00:55;93269.16;;;18.96;26.53
27958;BME280;15295;42.658;23.374;2023-02-26T05:03:23;93238.44;;;18.80;26.86
27958;BME280;15295;42.658;23.374;2023-02-26T05:05:50;93254.75;;;18.92;26.76
27958;BME280;15295;42.658;23.374;2023-02-26T05:08:18;93237.44;;;18.97;26.53
27958;BME280;15295;42.658;23.374;2023-02-26T05:10:44;93241.09;;;18.89;26.14
27958;BME280;15295;42.658;23.374;2023-02-26T05:13:15;93232.41;;;18.96;26.41
27958;BME280;15295;42.658;23.374;2023-02-26T05:15:43;93225.47;;;18.86;26.34
27958;BME280;15295;42.658;23.374;2023-02-26T05:18:11;93214.03;;;18.78;26.53
27958;BME280;15295;42.658;23.374;2023-02-26T05:20:37;93244.34;;;18.87;26.45
27958;BME280;15295;42.658;23.374;2023-02-26T05:23:03;93242.41;;;18.59;26.83
27958;BME280;15295;42.658;23.374;2023-02-26T05:25:29;93258.31;;;18.78;26.94
27958;BME280;15295;42.658;23.374;2023-02-26T05:27:55;93207.31;;;18.65;27.26
27958;BME280;15295;42.658;23.374;2023-02-26T05:30:22;93224.59;;;18.60;27.15
27958;BME280;15295;42.658;23.374;2023-02-26T05:32:47;93284.00;;;18.79;26.78
27958;BME280;15295;42.658;23.374;2023-02-26T05:35:13;93224.88;;;18.62;26.10
27958;BME280;15295;42.658;23.374;2023-02-26T05:37:38;93228.97;;;18.86;25.79
27958;BME280;15295;42.658;23.374;2023-02-26T05:40:08;93230.41;;;18.62;25.82
27958;BME280;15295;42.658;23.374;2023-02-26T05:42:36;93203.59;;;18.88;25.63
27958;BME280;15295;42.658;23.374;2023-02-26T05:45:03;93193.56;;;18.90;26.11
27958;BME280;15295;42.658;23.374;2023-02-26T05:47:32;93225.81;;;18.93;26.76
27958;BME280;15295;42.658;23.374;2023-02-26T05:49:58;93256.75;;;19.12;26.70
27958;BME280;15295;42.658;23.374;2023-02-26T05:52:23;93217.44;;;18.88;26.67
27958;BME280;15295;42.658;23.374;2023-02-26T05:54:51;93213.13;;;18.87;26.97
27958;BME280;15295;42.658;23.374;2023-02-26T05:57:18;93231.44;;;18.99;26.69
27958;BME280;15295;42.658;23.374;2023-02-26T05:59:45;93213.00;;;18.96;25.88
27958;BME280;15295;42.658;23.374;2023-02-26T06:02:10;93199.03;;;18.85;26.04
27958;BME280;15295;42.658;23.374;2023-02-26T06:04:36;93241.31;;;19.05;26.30
27958;BME280;15295;42.658;23.374;2023-02-26T06:07:02;93219.94;;;18.86;25.76
27958;BME280;15295;42.658;23.374;2023-02-26T06:09:27;93212.19;;;19.10;25.52
27958;BME280;15295;42.658;23.374;2023-02-26T06:11:54;93206.09;;;19.06;25.26
27958;BME280;15295;42.658;23.374;2023-02-26T06:14:20;93210.81;;;19.20;25.34
27958;BME280;15295;42.658;23.374;2023-02-26T06:16:49;93206.16;;;19.32;24.99
27958;BME280;15295;42.658;23.374;2023-02-26T06:19:18;93248.41;;;19.27;24.97
27958;BME280;15295;42.658;23.374;2023-02-26T06:21:48;93228.94;;;19.21;24.74
27958;BME280;15295;42.658;23.374;2023-02-26T06:24:38;93296.69;;;19.40;24.82
27958;BME280;15295;42.658;23.374;2023-02-26T06:27:09;93249.13;;;19.42;24.53
27958;BME280;15295;42.658;23.374;2023-02-26T06:29:35;93213.22;;;19.33;24.56
27958;BME280;15295;42.658;23.374;2023-02-26T06:32:08;93231.06;;;19.72;24.96
27958;BME280;15295;42.658;23.374;2023-02-26T06:34:38;93276.97;;;19.98;24.56
27958;BME280;15295;42.658;23.374;2023-02-26T06:37:07;93257.72;;;19.89;24.62
27958;BME280;15295;42.658;23.374;2023-02-26T06:40:00;93232.06;;;19.94;23.99
27958;BME280;15295;42.658;23.374;2023-02-26T06:42:50;93285.31;;;20.24;24.12
27958;BME280;15295;42.658;23.374;2023-02-26T06:45:18;93241.75;;;20.30;23.47
27958;BME280;15295;42.658;23.374;2023-02-26T06:47:47;93240.78;;;20.33;23.37
27958;BME280;15295;42.658;23.374;2023-02-26T06:50:12;93243.81;;;20.35;23.14
27958;BME280;15295;42.658;23.374;2023-02-26T06:52:37;93248.34;;;20.33;22.87
27958;BME280;15295;42.658;23.374;2023-02-26T06:55:04;93216.34;;;20.37;22.71
27958;BME280;15295;42.658;23.374;2023-02-26T07:05:10;93207.81;;;20.83;23.00
27958;BME280;15295;42.658;23.374;2023-02-26T07:07:42;93230.66;;;20.61;22.54
27958;BME280;15295;42.658;23.374;2023-02-26T07:10:43;93209.53;;;20.75;22.31
27958;BME280;15295;42.658;23.374;2023-02-26T07:13:19;93194.81;;;20.27;22.46
27958;BME280;15295;42.658;23.374;2023-02-26T07:15:52;93193.03;;;20.24;22.71
27958;BME280;15295;42.658;23.374;2023-02-26T07:18:24;93198.94;;;20.37;22.37
27958;BME280;15295;42.658;23.374;2023-02-26T07:20:52;93173.56;;;19.92;22.57
27958;BME280;15295;42.658;23.374;2023-02-26T07:23:25;93202.84;;;20.93;22.17
27958;BME280;15295;42.658;23.374;2023-02-26T07:25:51;93191.06;;;21.03;22.27
27958;BME280;15295;42.658;23.374;2023-02-26T07:28:17;93227.81;;;21.29;22.26
27958;BME280;15295;42.658;23.374;2023-02-26T07:30:49;93197.50;;;21.31;21.62
27958;BME280;15295;42.658;23.374;2023-02-26T07:33:24;93241.31;;;21.53;21.68
27958;BME280;15295;42.658;23.374;2023-02-26T07:36:13;93254.50;;;21.69;21.73
27958;BME280;15295;42.658;23.374;2023-02-26T07:39:12;93233.78;;;21.81;21.08
27958;BME280;15295;42.658;23.374;2023-02-26T07:41:38;93215.09;;;21.76;21.28
27958;BME280;15295;42.658;23.374;2023-02-26T07:44:04;93244.03;;;22.06;20.80
27958;BME280;15295;42.658;23.374;2023-02-26T07:46:29;93223.03;;;22.16;21.29
27958;BME280;15295;42.658;23.374;2023-02-26T07:48:55;93229.94;;;22.60;21.28
27958;BME280;15295;42.658;23.374;2023-02-26T07:51:20;93222.34;;;22.60;20.29
27958;BME280;15295;42.658;23.374;2023-02-26T07:53:45;93223.28;;;22.18;20.53
27958;BME280;15295;42.658;23.374;2023-02-26T07:56:11;93241.78;;;22.82;20.47
27958;BME280;15295;42.658;23.374;2023-02-26T07:58:36;93234.97;;;22.94;20.00
27958;BME280;15295;42.658;23.374;2023-02-26T08:01:02;93236.94;;;23.11;20.91
27958;BME280;15295;42.658;23.374;2023-02-26T08:03:27;93264.28;;;23.23;19.62
27958;BME280;15295;42.658;23.374;2023-02-26T08:05:53;93250.84;;;23.38;19.72
27958;BME280;15295;42.658;23.374;2023-02-26T08:08:18;93261.03;;;22.69;19.71
27958;BME280;15295;42.658;23.374;2023-02-26T08:10:44;93233.16;;;22.97;19.44
27958;BME280;15295;42.658;23.374;2023-02-26T08:13:12;93249.63;;;22.95;19.31
27958;BME280;15295;42.658;23.374;2023-02-26T08:15:39;93245.00;;;23.25;19.58
27958;BME280;15295;42.658;23.374;2023-02-26T08:18:08;93247.59;;;23.07;19.68
27958;BME280;15295;42.658;23.374;2023-02-26T08:20:34;93254.66;;;23.08;19.67
27958;BME280;15295;42.658;23.374;2023-02-26T08:22:59;93247.34;;;23.05;19.70
27958;BME280;15295;42.658;23.374;2023-02-26T08:25:33;93220.28;;;22.72;19.81
27958;BME280;15295;42.658;23.374;2023-02-26T08:27:59;93259.78;;;22.98;19.79
27958;BME280;15295;42.658;23.374;2023-02-26T08:30:25;93285.06;;;23.22;19.43
27958;BME280;15295;42.658;23.374;2023-02-26T08:32:51;93260.72;;;23.28;19.31
27958;BME280;15295;42.658;23.374;2023-02-26T08:35:16;93290.38;;;23.42;19.06
27958;BME280;15295;42.658;23.374;2023-02-26T08:37:42;93252.19;;;22.60;19.40
27958;BME280;15295;42.658;23.374;2023-02-26T08:40:09;93255.47;;;22.91;19.74
27958;BME280;15295;42.658;23.374;2023-02-26T08:42:42;93265.88;;;22.69;19.52
27958;BME280;15295;42.658;23.374;2023-02-26T08:45:19;93300.47;;;22.40;19.73
27958;BME280;15295;42.658;23.374;2023-02-26T08:47:44;93270.94;;;22.70;19.31
27958;BME280;15295;42.658;23.374;2023-02-26T08:50:19;93262.78;;;22.28;19.89
27958;BME280;15295;42.658;23.374;2023-02-26T08:52:45;93289.66;;;22.86;19.96
27958;BME280;15295;42.658;23.374;2023-02-26T08:55:10;93294.97;;;22.84;19.62
27958;BME280;15295;42.658;23.374;2023-02-26T08:57:35;93263.84;;;22.86;19.32
27958;BME280;15295;42.658;23.374;2023-02-26T09:00:05;93291.38;;;23.28;19.06
27958;BME280;15295;42.658;23.374;2023-02-26T09:15:36;93235.69;;;22.28;19.04
27958;BME280;15295;42.658;23.374;2023-02-26T09:18:02;93263.31;;;22.87;18.56
27958;BME280;15295;42.658;23.374;2023-02-26T09:20:33;93279.25;;;23.15;18.47
27958;BME280;15295;42.658;23.374;2023-02-26T09:28:38;93291.00;;;23.82;17.98
27958;BME280;15295;42.658;23.374;2023-02-26T09:31:04;93261.00;;;24.04;17.83
27958;BME280;15295;42.658;23.374;2023-02-26T09:33:31;93258.56;;;24.30;17.22
27958;BME280;15295;42.658;23.374;2023-02-26T09:35:58;93279.72;;;24.56;17.16
27958;BME280;15295;42.658;23.374;2023-02-26T09:38:29;93283.50;;;24.17;17.20
27958;BME280;15295;42.658;23.374;2023-02-26T09:41:01;93300.06;;;24.10;17.47
27958;BME280;15295;42.658;23.374;2023-02-26T09:43:48;93289.72;;;23.88;17.50
27958;BME280;15295;42.658;23.374;2023-02-26T09:46:26;93404.09;;;23.99;17.18
27958;BME280;15295;42.658;23.374;2023-02-26T09:49:18;93410.19;;;23.87;17.83
27958;BME280;15295;42.658;23.374;2023-02-26T09:51:42;93269.94;;;23.86;17.33
27958;BME280;15295;42.658;23.374;2023-02-26T09:54:17;93262.84;;;23.85;17.70
27958;BME280;15295;42.658;23.374;2023-02-26T09:56:44;93290.44;;;23.94;17.63
27958;BME280;15295;42.658;23.374;2023-02-26T09:59:11;93290.34;;;24.22;17.31
27958;BME280;15295;42.658;23.374;2023-02-26T10:02:01;93276.09;;;24.25;17.44
27958;BME280;15295;42.658;23.374;2023-02-26T10:04:58;93277.78;;;24.80;16.80
27958;BME280;15295;42.658;23.374;2023-02-26T10:07:56;93300.31;;;25.17;16.93
27958;BME280;15295;42.658;23.374;2023-02-26T10:10:46;93246.84;;;25.56;17.16
27958;BME280;15295;42.658;23.374;2023-02-26T10:16:03;93287.75;;;26.02;16.18
27958;BME280;15295;42.658;23.374;2023-02-26T10:19:01;93270.00;;;24.68;17.04
27958;BME280;15295;42.658;23.374;2023-02-26T10:21:44;93270.75;;;25.57;17.23
27958;BME280;15295;42.658;23.374;2023-02-26T10:24:25;93227.66;;;25.66;17.02
27958;BME280;15295;42.658;23.374;2023-02-26T10:27:05;93245.94;;;26.10;16.38
27958;BME280;15295;42.658;23.374;2023-02-26T10:29:59;93255.72;;;26.22;16.02
27958;BME280;15295;42.658;23.374;2023-02-26T10:32:49;93264.25;;;26.66;16.05
27958;BME280;15295;42.658;23.374;2023-02-26T10:35:17;93247.28;;;26.59;15.71
27958;BME280;15295;42.658;23.374;2023-02-26T10:37:50;93257.13;;;26.97;15.88
27958;BME280;15295;42.658;23.374;2023-02-26T10:43:26;93240.00;;;27.45;15.39
27958;BME280;15295;42.658;23.374;2023-02-26T10:48:50;93232.34;;;27.01;15.32
27958;BME280;15295;42.658;23.374;2023-02-26T10:51:22;93236.72;;;26.65;15.80
27958;BME280;15295;42.658;23.374;2023-02-26T10:54:36;93211.56;;;26.46;15.54
27958;BME280;15295;42.658;23.374;2023-02-26T10:56:54;93225.59;;;26.28;16.07
27958;BME280;15295;42.658;23.374;2023-02-26T10:59:19;93239.50;;;26.33;16.13
27958;BME280;15295;42.658;23.374;2023-02-26T11:01:46;93219.31;;;26.22;16.39
27958;BME280;15295;42.658;23.374;2023-02-26T11:04:15;93237.13;;;25.81;16.81
27958;BME280;15295;42.658;23.374;2023-02-26T11:06:52;93268.69;;;24.69;16.86
27958;BME280;15295;42.658;23.374;2023-02-26T11:09:24;93219.91;;;24.05;17.93
27958;BME280;15295;42.658;23.374;2023-02-26T11:12:06;93236.53;;;24.21;18.44
27958;BME280;15295;42.658;23.374;2023-02-26T11:14:38;93239.63;;;23.55;18.65
27958;BME280;15295;42.658;23.374;2023-02-26T11:17:09;93222.97;;;23.27;18.91
27958;BME280;15295;42.658;23.374;2023-02-26T11:19:39;93238.56;;;23.69;18.62
27958;BME280;15295;42.658;23.374;2023-02-26T11:22:12;93210.69;;;23.69;18.39
27958;BME280;15295;42.658;23.374;2023-02-26T11:24:45;93213.44;;;23.74;18.41
27958;BME280;15295;42.658;23.374;2023-02-26T11:27:23;93199.72;;;23.76;18.53
27958;BME280;15295;42.658;23.374;2023-02-26T11:29:55;93216.69;;;23.84;18.25
27958;BME280;15295;42.658;23.374;2023-02-26T11:32:33;93239.97;;;23.92;18.34
27958;BME280;15295;42.658;23.374;2023-02-26T11:34:59;93210.56;;;23.91;18.23
27958;BME280;15295;42.658;23.374;2023-02-26T11:37:34;93228.81;;;23.92;18.25
27958;BME280;15295;42.658;23.374;2023-02-26T11:40:12;93237.91;;;23.98;18.23
27958;BME280;15295;42.658;23.374;2023-02-26T11:42:55;93228.47;;;24.12;18.70
27958;BME280;15295;42.658;23.374;2023-02-26T11:45:22;93222.28;;;23.84;18.93
27958;BME280;15295;42.658;23.374;2023-02-26T11:47:56;93224.00;;;23.93;18.76
27958;BME280;15295;42.658;23.374;2023-02-26T11:50:23;93237.81;;;24.20;18.37
27958;BME280;15295;42.658;23.374;2023-02-26T11:53:04;93224.16;;;24.11;18.04
27958;BME280;15295;42.658;23.374;2023-02-26T11:55:44;93207.22;;;23.98;18.40
27958;BME280;15295;42.658;23.374;2023-02-26T11:58:22;93278.56;;;24.40;18.21
27958;BME280;15295;42.658;23.374;2023-02-26T12:00:50;93274.25;;;24.39;18.46
27958;BME280;15295;42.658;23.374;2023-02-26T12:03:20;93268.94;;;24.71;18.22
27958;BME280;15295;42.658;23.374;2023-02-26T12:05:46;93252.69;;;24.75;18.59
27958;BME280;15295;42.658;23.374;2023-02-26T12:08:25;93283.13;;;24.73;18.71
27958;BME280;15295;42.658;23.374;2023-02-26T12:11:07;93260.41;;;24.58;19.40
27958;BME280;15295;42.658;23.374;2023-02-26T12:19:51;93282.13;;;24.35;19.45
27958;BME280;15295;42.658;23.374;2023-02-26T12:31:06;93292.00;;;24.41;20.39
27958;BME280;15295;42.658;23.374;2023-02-26T12:34:00;93232.03;;;24.13;20.46
27958;BME280;15295;42.658;23.374;2023-02-26T12:37:00;93296.47;;;24.56;20.54
27958;BME280;15295;42.658;23.374;2023-02-26T12:39:56;93261.72;;;24.51;20.62
27958;BME280;15295;42.658;23.374;2023-02-26T12:45:46;93308.41;;;24.97;20.91
27958;BME280;15295;42.658;23.374;2023-02-26T13:08:39;93293.47;;;25.18;19.46
27958;BME280;15295;42.658;23.374;2023-02-26T13:14:16;93290.31;;;24.98;19.79
27958;BME280;15295;42.658;23.374;2023-02-26T13:22:44;93318.41;;;24.40;20.47
27958;BME280;15295;42.658;23.374;2023-02-26T13:25:22;93263.28;;;23.15;20.68
27958;BME280;15295;42.658;23.374;2023-02-26T13:27:52;93296.09;;;23.72;21.33
27958;BME280;15295;42.658;23.374;2023-02-26T13:30:24;93282.00;;;23.42;21.20
27958;BME280;15295;42.658;23.374;2023-02-26T13:33:01;93272.88;;;23.42;20.24
27958;BME280;15295;42.658;23.374;2023-02-26T13:35:35;93281.63;;;23.79;20.29
27958;BME280;15295;42.658;23.374;2023-02-26T13:38:34;93253.88;;;23.40;20.41
27958;BME280;15295;42.658;23.374;2023-02-26T13:41:49;93328.31;;;23.73;21.43
27958;BME280;15295;42.658;23.374;2023-02-26T13:50:57;93313.94;;;23.08;20.61
27958;BME280;15295;42.658;23.374;2023-02-26T13:59:04;93276.00;;;22.66;21.49
27958;BME280;15295;42.658;23.374;2023-02-26T14:04:31;93286.34;;;23.10;21.27
27958;BME280;15295;42.658;23.374;2023-02-26T14:07:45;93262.53;;;23.03;21.43
27958;BME280;15295;42.658;23.374;2023-02-26T14:10:16;93297.97;;;23.47;20.98
27958;BME280;15295;42.658;23.374;2023-02-26T14:13:12;93307.84;;;23.54;21.27
27958;BME280;15295;42.658;23.374;2023-02-26T14:15:49;93282.03;;;23.37;20.55
27958;BME280;15295;42.658;23.374;2023-02-26T14:18:31;93347.16;;;23.12;20.73
27958;BME280;15295;42.658;23.374;2023-02-26T14:23:57;93330.66;;;22.64;20.58
27958;BME280;15295;42.658;23.374;2023-02-26T14:26:24;93261.03;;;22.80;20.75
27958;BME280;15295;42.658;23.374;2023-02-26T14:28:56;93322.81;;;23.29;20.65
27958;BME280;15295;42.658;23.374;2023-02-26T14:31:24;93285.84;;;22.84;20.35
27958;BME280;15295;42.658;23.374;2023-02-26T14:36:34;93344.84;;;22.60;20.96
27958;BME280;15295;42.658;23.374;2023-02-26T14:39:07;93308.91;;;22.62;21.01
27958;BME280;15295;42.658;23.374;2023-02-26T14:41:40;93288.91;;;22.80;21.33
27958;BME280;15295;42.658;23.374;2023-02-26T14:44:33;93298.00;;;22.59;20.99
27958;BME280;15295;42.658;23.374;2023-02-26T14:47:07;93337.75;;;22.76;21.30
27958;BME280;15295;42.658;23.374;2023-02-26T14:49:43;93315.47;;;22.70;21.14
27958;BME280;15295;42.658;23.374;2023-02-26T14:53:36;93333.94;;;22.73;21.09
27958;BME280;15295;42.658;23.374;2023-02-26T14:55:47;93312.88;;;22.39;21.77
27958;BME280;15295;42.658;23.374;2023-02-26T15:04:09;93344.34;;;22.89;21.39
27958;BME280;15295;42.658;23.374;2023-02-26T15:16:21;93308.16;;;22.89;21.74
27958;BME280;15295;42.658;23.374;2023-02-26T15:19:13;93321.31;;;22.78;22.07
27958;BME280;15295;42.658;23.374;2023-02-26T15:22:27;93331.44;;;22.86;22.00
27958;BME280;15295;42.658;23.374;2023-02-26T15:24:58;93296.75;;;22.71;21.95
27958;BME280;15295;42.658;23.374;2023-02-26T15:27:28;93374.00;;;23.09;21.69
27958;BME280;15295;42.658;23.374;2023-02-26T15:29:57;93363.88;;;23.12;21.90
27958;BME280;15295;42.658;23.374;2023-02-26T15:32:28;93300.31;;;22.77;22.68
27958;BME280;15295;42.658;23.374;2023-02-26T15:35:22;93367.66;;;23.14;22.28
27958;BME280;15295;42.658;23.374;2023-02-26T15:37:53;93345.63;;;22.94;22.29
27958;BME280;15295;42.658;23.374;2023-02-26T15:40:26;93355.25;;;22.87;21.97
27958;BME280;15295;42.658;23.374;2023-02-26T15:42:56;93352.19;;;22.74;22.12
27958;BME280;15295;42.658;23.374;2023-02-26T15:45:40;93312.63;;;22.37;23.28
27958;BME280;15295;42.658;23.374;2023-02-26T15:48:15;93366.00;;;22.30;23.71
27958;BME280;15295;42.658;23.374;2023-02-26T15:50:47;93384.50;;;22.44;24.40
27958;BME280;15295;42.658;23.374;2023-02-26T15:53:29;93389.50;;;22.29;24.68
27958;BME280;15295;42.658;23.374;2023-02-26T15:56:09;93397.22;;;21.97;24.94
27958;BME280;15295;42.658;23.374;2023-02-26T15:58:39;93397.34;;;22.25;25.15
27958;BME280;15295;42.658;23.374;2023-02-26T16:01:14;93409.84;;;21.87;25.14
27958;BME280;15295;42.658;23.374;2023-02-26T16:03:41;93368.84;;;21.45;25.55
27958;BME280;15295;42.658;23.374;2023-02-26T16:06:15;93405.84;;;21.63;25.66
27958;BME280;15295;42.658;23.374;2023-02-26T16:08:44;93401.59;;;21.67;25.92
27958;BME280;15295;42.658;23.374;2023-02-26T16:11:11;93372.22;;;21.55;26.46
27958;BME280;15295;42.658;23.374;2023-02-26T16:13:43;93364.50;;;21.33;26.54
27958;BME280;15295;42.658;23.374;2023-02-26T16:16:21;93406.38;;;21.67;26.45
27958;BME280;15295;42.658;23.374;2023-02-26T16:18:48;93429.41;;;21.73;26.35
27958;BME280;15295;42.658;23.374;2023-02-26T16:21:27;93416.44;;;21.59;26.56